Time;durP1;ratioP1;P1;durP2;ratioP2;P2;SDS_P1;SDS_P2;PMS_P1;PMS_P2;Temp;Humidity;BMP_temperature;BMP_pressure;BME280_temperature;BME280_humidity;BME280_pressure;Samples;Min_cycle;Max_cycle;Signal;HPM_P1;HPM_P2
2022/08/03 00:01:53;;;;;;;0.13;0.13;;;;;;;28.14;100.00;100841.13;2616858;54;20146;-65
2022/08/03 00:04:23;;;;;;;0.85;0.85;;;;;;;28.15;100.00;100834.78;2616890;54;20153;-64
2022/08/03 00:07:03;;;;;;;0.00;0.00;;;;;;;27.95;100.00;100825.06;2616779;54;20165;-65
2022/08/03 00:09:33;;;;;;;0.00;0.00;;;;;;;27.82;100.00;100824.00;2616581;54;20145;-64
2022/08/03 00:12:04;;;;;;;0.00;0.00;;;;;;;27.31;100.00;100828.09;2616865;54;20211;-65
2022/08/03 00:14:35;;;;;;;0.10;0.10;;;;;;;26.86;100.00;100829.47;2616929;54;20146;-65
2022/08/03 00:17:08;;;;;;;0.55;0.30;;;;;;;26.20;100.00;100836.88;2617014;54;20150;-65
2022/08/03 00:19:38;;;;;;;0.68;0.68;;;;;;;25.93;100.00;100838.44;2616758;54;20153;-65
2022/08/03 00:22:08;;;;;;;0.28;0.00;;;;;;;26.00;100.00;100835.81;2616679;47;20153;-65
2022/08/03 00:24:38;;;;;;;0.00;0.00;;;;;;;26.01;100.00;100832.16;2616710;54;20169;-65
2022/08/03 00:27:09;;;;;;;0.17;0.17;;;;;;;26.39;100.00;100830.94;2616840;54;20148;-65
2022/08/03 00:29:43;;;;;;;0.00;0.00;;;;;;;26.85;100.00;100827.81;2616776;54;20153;-65
2022/08/03 00:32:31;;;;;;;0.00;0.00;;;;;;;26.93;100.00;100830.31;2616993;54;20141;-65
2022/08/03 00:35:02;;;;;;;0.15;0.15;;;;;;;26.87;100.00;100831.13;2616860;54;20145;-65
2022/08/03 00:37:40;;;;;;;1.48;0.40;;;;;;;27.05;100.00;100820.78;2616836;54;20142;-66
2022/08/03 00:40:14;;;;;;;0.25;0.25;;;;;;;27.17;100.00;100827.19;2616690;54;20145;-65
2022/08/03 00:42:52;;;;;;;0.57;0.57;;;;;;;27.47;100.00;100825.13;2616904;54;20154;-65
2022/08/03 00:45:25;;;;;;;0.00;0.00;;;;;;;27.64;100.00;100829.09;2616839;54;20148;-64
2022/08/03 00:47:59;;;;;;;0.10;0.10;;;;;;;27.89;100.00;100826.66;2617324;39;20553;-65
2022/08/03 00:50:31;;;;;;;0.13;0.13;;;;;;;27.13;100.00;100836.59;2616695;54;20145;-66
2022/08/03 00:53:02;;;;;;;0.32;0.20;;;;;;;26.61;100.00;100834.38;2616785;54;20134;-66
2022/08/03 00:55:32;;;;;;;0.52;0.35;;;;;;;26.59;100.00;100832.94;2616604;47;20152;-65
2022/08/03 00:58:05;;;;;;;0.28;0.22;;;;;;;26.58;100.00;100832.09;2616682;54;20142;-66
2022/08/03 01:00:37;;;;;;;0.00;0.00;;;;;;;26.15;100.00;100823.31;2616753;54;20153;-65
2022/08/03 01:03:11;;;;;;;0.30;0.30;;;;;;;26.07;100.00;100834.91;2616591;54;20164;-65
2022/08/03 01:05:54;;;;;;;0.00;0.00;;;;;;;26.45;100.00;100832.00;2617069;39;20582;-65
2022/08/03 01:08:39;;;;;;;0.00;0.00;;;;;;;26.80;100.00;100832.91;2616629;54;20141;-65
2022/08/03 01:11:16;;;;;;;0.00;0.00;;;;;;;27.23;100.00;100830.91;2616504;54;20153;-66
2022/08/03 01:13:53;;;;;;;0.00;0.00;;;;;;;27.71;100.00;100829.94;2616739;54;20145;-65
2022/08/03 01:16:53;;;;;;;0.05;0.05;;;;;;;27.65;100.00;100830.72;2616467;54;20617;-65
2022/08/03 01:19:38;;;;;;;0.00;0.00;;;;;;;27.50;100.00;100832.72;2616632;54;20142;-65
2022/08/03 01:22:24;;;;;;;0.10;0.10;;;;;;;27.33;100.00;100826.03;2616354;54;20184;-66
2022/08/03 01:25:04;;;;;;;0.17;0.17;;;;;;;27.25;100.00;100832.34;2616559;54;20727;-66
2022/08/03 01:27:52;;;;;;;0.00;0.00;;;;;;;27.24;100.00;100833.38;2616920;39;20623;-64
2022/08/03 01:30:29;;;;;;;0.00;0.00;;;;;;;27.54;100.00;100825.13;2616624;54;20150;-65
2022/08/03 01:33:05;;;;;;;0.00;0.00;;;;;;;27.67;100.00;100825.19;2616700;54;20152;-65
2022/08/03 01:35:41;;;;;;;0.00;0.00;;;;;;;27.89;100.00;100829.34;2616549;51;20697;-66
2022/08/03 01:38:15;;;;;;;0.00;0.00;;;;;;;27.94;100.00;100829.56;2616707;54;20146;-65
2022/08/03 01:40:47;;;;;;;0.00;0.00;;;;;;;27.86;100.00;100829.75;2616452;54;20148;-65
2022/08/03 01:43:21;;;;;;;4.85;4.65;;;;;;;27.57;100.00;100838.06;2616471;54;20142;-65
2022/08/03 01:46:15;;;;;;;0.00;0.00;;;;;;;27.81;100.00;100834.84;2616622;54;20153;-65
2022/08/03 01:48:48;;;;;;;0.00;0.00;;;;;;;27.84;100.00;100839.81;2616585;54;20142;-65
2022/08/03 01:51:20;;;;;;;2.67;0.85;;;;;;;27.21;100.00;100833.78;2616371;54;20141;-65
2022/08/03 01:53:53;;;;;;;0.10;0.10;;;;;;;27.24;100.00;100832.56;2616215;54;20145;-65
2022/08/03 01:56:26;;;;;;;0.00;0.00;;;;;;;27.32;100.00;100833.22;2616544;54;20157;-65
2022/08/03 01:58:59;;;;;;;0.00;0.00;;;;;;;27.40;100.00;100832.25;2616416;47;20617;-64
2022/08/03 02:01:34;;;;;;;0.63;0.63;;;;;;;27.34;100.00;100831.19;2616952;39;20559;-65
2022/08/03 02:04:25;;;;;;;0.00;0.00;;;;;;;27.17;100.00;100827.19;2616446;54;20661;-65
2022/08/03 02:06:56;;;;;;;0.00;0.00;;;;;;;27.28;100.00;100833.81;2616494;54;20152;-65
2022/08/03 02:09:32;;;;;;;0.00;0.00;;;;;;;27.29;100.00;100830.13;2616469;39;20578;-65
2022/08/03 02:12:04;;;;;;;0.00;0.00;;;;;;;27.20;100.00;100834.78;2616357;54;20149;-64
2022/08/03 02:14:36;;;;;;;0.90;0.88;;;;;;;26.76;100.00;100845.75;2616408;54;20141;-65
2022/08/03 02:17:09;;;;;;;1.80;0.98;;;;;;;26.13;100.00;100843.94;2616379;54;20150;-65
2022/08/03 02:19:41;;;;;;;0.00;0.00;;;;;;;25.65;100.00;100840.16;2616487;54;20767;-65
2022/08/03 02:22:14;;;;;;;0.73;0.73;;;;;;;25.68;100.00;100838.97;2616304;54;20157;-66
2022/08/03 02:24:45;;;;;;;0.00;0.00;;;;;;;25.76;100.00;100846.84;2616221;54;20150;-65
2022/08/03 02:27:23;;;;;;;0.00;0.00;;;;;;;26.07;100.00;100842.06;2616050;54;20141;-65
2022/08/03 02:29:58;;;;;;;0.00;0.00;;;;;;;26.18;100.00;100846.88;2616474;54;20152;-65
2022/08/03 02:32:36;;;;;;;0.40;0.40;;;;;;;25.84;100.00;100841.41;2616446;54;20141;-66
2022/08/03 02:35:11;;;;;;;0.20;0.20;;;;;;;25.64;100.00;100848.34;2616333;54;20141;-66
2022/08/03 02:37:45;;;;;;;0.00;0.00;;;;;;;26.50;100.00;100849.03;2616273;54;20141;-66
2022/08/03 02:40:20;;;;;;;0.10;0.10;;;;;;;26.90;100.00;100847.53;2616372;54;21002;-65
2022/08/03 02:42:55;;;;;;;0.00;0.00;;;;;;;26.85;100.00;100843.78;2616270;54;20142;-66
2022/08/03 02:45:28;;;;;;;0.00;0.00;;;;;;;26.93;100.00;100844.47;2616625;39;20617;-66
2022/08/03 02:48:04;;;;;;;0.40;0.40;;;;;;;27.13;100.00;100847.25;2616455;54;20150;-65
2022/08/03 02:50:36;;;;;;;0.00;0.00;;;;;;;27.17;100.00;100843.19;2616311;54;20172;-65
2022/08/03 02:53:09;;;;;;;0.00;0.00;;;;;;;27.58;100.00;100843.19;2616337;54;20146;-65
2022/08/03 02:55:41;;;;;;;0.00;0.00;;;;;;;27.39;100.00;100847.41;2616516;39;20572;-65
2022/08/03 02:58:16;;;;;;;0.00;0.00;;;;;;;27.39;100.00;100842.06;2616139;54;20156;-65
2022/08/03 03:00:46;;;;;;;1.75;1.35;;;;;;;27.46;100.00;100834.09;2616258;54;20149;-65
2022/08/03 03:03:20;;;;;;;0.30;0.15;;;;;;;27.11;100.00;100848.47;2616089;54;20168;-65
2022/08/03 03:05:52;;;;;;;0.30;0.10;;;;;;;26.38;100.00;100847.91;2616866;54;20149;-65
2022/08/03 03:08:29;;;;;;;0.03;0.03;;;;;;;25.96;100.00;100838.03;2616899;54;20685;-66
2022/08/03 03:11:02;;;;;;;0.00;0.00;;;;;;;24.94;100.00;100849.59;2616845;54;20149;-65
2022/08/03 03:13:33;;;;;;;0.63;0.17;;;;;;;24.91;100.00;100854.47;2616656;54;20274;-66
2022/08/03 03:16:06;;;;;;;0.00;0.00;;;;;;;25.48;100.00;100850.13;2617082;54;20745;-65
2022/08/03 03:18:40;;;;;;;0.55;0.45;;;;;;;25.69;100.00;100846.75;2616956;54;20153;-65
2022/08/03 03:21:12;;;;;;;0.00;0.00;;;;;;;25.79;100.00;100852.59;2616860;54;20141;-66
2022/08/03 03:23:43;;;;;;;0.70;0.70;;;;;;;26.17;100.00;100855.84;2616672;54;20153;-65
2022/08/03 03:26:15;;;;;;;0.08;0.08;;;;;;;26.03;100.00;100859.41;2617072;54;20141;-65
2022/08/03 03:28:46;;;;;;;0.22;0.22;;;;;;;26.52;100.00;100862.97;2616749;54;20200;-65
2022/08/03 03:31:17;;;;;;;0.10;0.10;;;;;;;26.39;100.00;100870.84;2616934;54;20141;-65
2022/08/03 03:33:50;;;;;;;0.00;0.00;;;;;;;26.52;100.00;100873.59;2616905;54;20230;-65
2022/08/03 03:36:21;;;;;;;0.10;0.10;;;;;;;26.31;100.00;100873.63;2616888;54;20149;-65
2022/08/03 03:38:51;;;;;;;0.88;0.25;;;;;;;25.90;100.00;100876.03;2616767;54;20142;-65
2022/08/03 03:41:22;;;;;;;0.10;0.10;;;;;;;25.49;100.00;100877.53;2616921;54;20189;-65
2022/08/03 03:43:53;;;;;;;0.08;0.08;;;;;;;25.79;100.00;100878.34;2616828;54;20133;-65
2022/08/03 03:46:23;;;;;;;0.10;0.10;;;;;;;25.88;100.00;100883.38;2617060;54;20141;-65
2022/08/03 03:48:56;;;;;;;0.00;0.00;;;;;;;26.54;100.00;100881.41;2616866;54;20710;-66
2022/08/03 03:51:26;;;;;;;0.10;0.10;;;;;;;26.57;100.00;100882.84;2616645;47;20165;-66
2022/08/03 03:53:58;;;;;;;0.10;0.10;;;;;;;26.88;100.00;100881.50;2616758;54;20148;-66
2022/08/03 03:56:29;;;;;;;0.10;0.10;;;;;;;27.22;100.00;100890.56;2616736;54;20149;-66
2022/08/03 03:58:59;;;;;;;0.00;0.00;;;;;;;27.26;100.00;100884.63;2616715;54;20141;-66
2022/08/03 04:01:30;;;;;;;0.00;0.00;;;;;;;27.63;100.00;100878.09;2616864;54;20142;-65
2022/08/03 04:10:57;;;;;;;0.20;0.20;;;;;;;27.96;100.00;100885.41;2617136;39;20553;-66
2022/08/03 04:12:21;;;;;;;0.30;0.30;;;;;;;27.24;100.00;100886.66;2616658;47;20671;-65
2022/08/03 04:14:53;;;;;;;0.40;0.38;;;;;;;27.28;100.00;100889.78;2616755;54;20177;-65
2022/08/03 04:17:27;;;;;;;2.17;0.90;;;;;;;26.92;100.00;100885.44;2616640;54;20690;-66
2022/08/03 04:20:01;;;;;;;1.45;1.05;;;;;;;26.63;100.00;100888.25;2616757;54;20141;-65
2022/08/03 04:22:34;;;;;;;0.00;0.00;;;;;;;26.63;100.00;100892.75;2616628;54;20146;-66
2022/08/03 04:25:08;;;;;;;0.52;0.52;;;;;;;26.65;100.00;100896.03;2616864;39;20655;-65
2022/08/03 04:27:42;;;;;;;1.20;1.17;;;;;;;26.45;100.00;100896.69;2616627;54;20203;-64
2022/08/03 04:30:13;;;;;;;0.60;0.60;;;;;;;26.88;100.00;100902.81;2616625;54;20169;-65
2022/08/03 04:32:50;;;;;;;0.22;0.22;;;;;;;26.23;100.00;100902.19;2616711;54;20154;-64
2022/08/03 04:35:25;;;;;;;0.52;0.50;;;;;;;26.20;100.00;100906.03;2616579;54;20141;-65
2022/08/03 04:38:20;;;;;;;0.55;0.55;;;;;;;26.26;100.00;100902.66;2616529;54;20169;-65
2022/08/03 04:40:50;;;;;;;0.15;0.15;;;;;;;25.71;100.00;100891.75;2616602;54;20156;-65
2022/08/03 04:43:24;;;;;;;0.90;0.90;;;;;;;25.82;100.00;100899.25;2617065;39;20661;-65
2022/08/03 04:45:56;;;;;;;0.17;0.05;;;;;;;26.05;100.00;100902.56;2616696;54;20141;-65
2022/08/03 04:48:27;;;;;;;1.35;1.25;;;;;;;25.88;100.00;100909.16;2616677;54;20161;-66
2022/08/03 04:51:03;;;;;;;1.58;0.77;;;;;;;25.86;100.00;100913.81;2617082;54;20142;-66
2022/08/03 04:53:33;;;;;;;0.35;0.35;;;;;;;25.35;100.00;100912.91;2616521;54;20149;-69
2022/08/03 04:56:07;;;;;;;1.08;1.02;;;;;;;25.20;100.00;100912.09;2616767;54;20134;-66
2022/08/03 04:58:37;;;;;;;0.10;0.10;;;;;;;25.24;100.00;100921.31;2616395;47;20142;-65
2022/08/03 05:01:07;;;;;;;0.95;0.95;;;;;;;25.29;100.00;100918.94;2617110;39;20619;-66
2022/08/03 05:03:38;;;;;;;2.50;2.08;;;;;;;25.11;100.00;100917.47;2616484;54;20246;-65
2022/08/03 05:06:11;;;;;;;2.33;1.90;;;;;;;25.01;100.00;100926.69;2616533;54;20149;-65
2022/08/03 05:08:45;;;;;;;1.63;1.52;;;;;;;24.93;100.00;100924.94;2617033;39;20298;-65
2022/08/03 05:11:20;;;;;;;1.00;1.00;;;;;;;24.88;100.00;100937.09;2616290;54;20248;-65
2022/08/03 05:13:50;;;;;;;1.83;1.05;;;;;;;24.78;100.00;100926.69;2617163;39;20529;-67
2022/08/03 05:16:20;;;;;;;3.22;1.73;;;;;;;24.73;100.00;100925.56;2616695;54;20145;-66
2022/08/03 05:18:51;;;;;;;1.38;1.38;;;;;;;24.78;100.00;100939.16;2616291;54;20142;-66
2022/08/03 05:21:23;;;;;;;0.70;0.70;;;;;;;24.84;100.00;100931.28;2617015;54;20185;-65
2022/08/03 05:24:10;;;;;;;1.08;1.00;;;;;;;25.25;100.00;100929.09;2616417;54;20150;-65
2022/08/03 05:26:40;;;;;;;1.27;1.25;;;;;;;25.83;100.00;100923.00;2616749;47;20142;-66
2022/08/03 05:29:11;;;;;;;0.28;0.25;;;;;;;25.82;98.56;100924.00;2615987;54;20229;-65
2022/08/03 05:31:41;;;;;;;0.40;0.40;;;;;;;25.71;100.00;100929.81;2616750;54;20149;-65
2022/08/03 05:34:11;;;;;;;4.70;2.17;;;;;;;25.94;94.62;100924.34;2616416;54;20141;-65
2022/08/03 05:36:44;;;;;;;1.98;1.05;;;;;;;25.71;97.48;100944.91;2616949;39;20502;-67
2022/08/03 05:39:14;;;;;;;1.58;0.88;;;;;;;25.49;97.28;100933.34;2616463;54;20148;-66
2022/08/03 05:41:45;;;;;;;1.00;0.60;;;;;;;25.81;99.48;100924.19;2616496;54;20153;-65
2022/08/03 05:44:15;;;;;;;0.65;0.60;;;;;;;25.71;92.61;100928.97;2616318;54;20160;-66
2022/08/03 05:46:45;;;;;;;13.50;2.45;;;;;;;25.55;100.00;100938.78;2616897;39;20560;-66
2022/08/03 05:49:15;;;;;;;1.45;1.35;;;;;;;25.64;94.64;100936.03;2616461;54;20141;-66
2022/08/03 05:51:48;;;;;;;1.38;0.85;;;;;;;25.36;94.68;100936.63;2616806;47;20152;-65
2022/08/03 05:54:37;;;;;;;1.00;0.90;;;;;;;25.64;96.08;100928.06;2616595;47;20157;-66
2022/08/03 05:57:26;;;;;;;1.08;0.98;;;;;;;25.67;91.79;100936.50;2616466;54;20265;-65
2022/08/03 05:59:56;;;;;;;0.63;0.63;;;;;;;26.07;97.50;100937.81;2616446;54;20148;-66
2022/08/03 06:02:28;;;;;;;0.40;0.40;;;;;;;25.99;88.63;100937.91;2616444;54;20150;-67
2022/08/03 06:04:58;;;;;;;0.77;0.77;;;;;;;25.89;86.40;100948.84;2616241;54;20150;-67
2022/08/03 06:07:31;;;;;;;0.43;0.40;;;;;;;25.83;87.51;100949.59;2616379;54;20153;-66
2022/08/03 06:10:02;;;;;;;0.70;0.70;;;;;;;26.27;93.38;100930.06;2616304;54;20176;-66
2022/08/03 06:12:52;;;;;;;0.40;0.40;;;;;;;26.30;88.63;100941.16;2616882;39;20556;-65
2022/08/03 06:15:23;;;;;;;1.75;1.17;;;;;;;26.54;90.85;100938.13;2616332;54;20134;-66
2022/08/03 06:17:55;;;;;;;0.40;0.40;;;;;;;26.43;82.54;100943.97;2616566;54;20134;-66
2022/08/03 06:20:30;;;;;;;1.27;1.17;;;;;;;26.07;87.00;100930.66;2616297;54;20141;-66
2022/08/03 06:23:03;;;;;;;2.78;1.30;;;;;;;26.18;83.50;100934.66;2616119;54;20149;-66
2022/08/03 06:25:36;;;;;;;0.40;0.40;;;;;;;26.33;87.00;100919.50;2616138;54;20950;-67
2022/08/03 06:28:06;;;;;;;0.35;0.35;;;;;;;26.90;84.65;100938.09;2616621;39;20607;-66
2022/08/03 06:30:52;;;;;;;0.70;0.70;;;;;;;26.55;83.53;100933.63;2616202;54;20149;-66
2022/08/03 06:33:24;;;;;;;1.00;1.00;;;;;;;26.57;78.35;100931.59;2616364;54;20150;-65
2022/08/03 06:36:14;;;;;;;3.40;1.83;;;;;;;26.84;76.65;100938.84;2616087;54;20141;-67
2022/08/03 06:38:47;;;;;;;0.82;0.77;;;;;;;26.93;77.44;100926.22;2616428;54;20797;-65
2022/08/03 06:41:17;;;;;;;1.77;1.67;;;;;;;26.68;77.28;100932.94;2616755;39;20557;-66
2022/08/03 06:43:47;;;;;;;0.93;0.93;;;;;;;26.64;76.60;100937.00;2616430;39;20509;-66
2022/08/03 06:46:33;;;;;;;2.42;2.22;;;;;;;26.65;71.62;100941.28;2616568;54;20133;-66
2022/08/03 06:49:03;;;;;;;2.13;1.80;;;;;;;26.59;73.00;100963.38;2616603;54;20178;-66
2022/08/03 06:51:33;;;;;;;0.43;0.43;;;;;;;26.88;72.77;100939.31;2616365;54;20142;-66
2022/08/03 06:54:26;;;;;;;1.52;0.85;;;;;;;27.30;74.75;100933.88;2616961;54;20142;-65
2022/08/03 06:56:56;;;;;;;1.02;0.80;;;;;;;27.37;74.46;100937.38;2616254;54;20142;-65
2022/08/03 06:59:27;;;;;;;0.88;0.88;;;;;;;27.30;64.71;100949.84;2616499;39;20598;-65
2022/08/03 07:02:17;;;;;;;5.15;2.42;;;;;;;27.02;60.52;100946.38;2616324;54;20154;-65
2022/08/03 07:04:48;;;;;;;1.05;0.80;;;;;;;27.33;64.07;100946.78;2616006;54;20149;-66
2022/08/03 07:07:19;;;;;;;3.92;1.63;;;;;;;27.33;60.37;100962.78;2616171;54;20148;-67
2022/08/03 07:09:52;;;;;;;1.17;1.17;;;;;;;27.64;63.01;100945.59;2616106;54;20670;-66
2022/08/03 07:12:28;;;;;;;0.38;0.38;;;;;;;27.85;62.11;100937.47;2616148;54;20148;-65
2022/08/03 07:14:59;;;;;;;0.70;0.70;;;;;;;27.81;57.80;100954.88;2616222;54;20149;-66
2022/08/03 07:17:33;;;;;;;0.55;0.55;;;;;;;27.59;58.26;100966.66;2616224;54;20142;-65
2022/08/03 07:20:04;;;;;;;2.33;1.17;;;;;;;27.57;64.30;100926.03;2615970;54;20658;-67
2022/08/03 07:22:35;;;;;;;0.75;0.75;;;;;;;27.84;55.69;100951.84;2616118;48;20150;-65
2022/08/03 07:25:08;;;;;;;1.20;1.10;;;;;;;27.71;58.03;100947.25;2615975;54;20150;-65
2022/08/03 07:27:38;;;;;;;0.10;0.10;;;;;;;28.06;60.83;100944.50;2616091;54;20197;-66
2022/08/03 07:30:10;;;;;;;1.00;0.52;;;;;;;28.04;58.50;100939.41;2616065;47;20152;-65
2022/08/03 07:32:41;;;;;;;0.65;0.65;;;;;;;28.08;56.85;100937.97;2616278;54;20255;-65
2022/08/03 07:35:19;;;;;;;0.85;0.85;;;;;;;28.10;57.70;100945.78;2615971;54;20229;-66
2022/08/03 07:37:54;;;;;;;4.78;1.13;;;;;;;27.83;57.05;100958.19;2616340;54;20662;-66
2022/08/03 07:40:27;;;;;;;2.92;1.35;;;;;;;28.09;58.39;100955.63;2615919;54;20157;-65
2022/08/03 07:43:02;;;;;;;3.83;2.03;;;;;;;28.07;58.74;100956.84;2616237;54;20149;-65
2022/08/03 07:45:33;;;;;;;1.73;1.20;;;;;;;27.91;52.26;100960.69;2615948;47;20150;-66
2022/08/03 07:48:03;;;;;;;0.70;0.47;;;;;;;27.98;58.10;100942.84;2616231;54;20134;-65
2022/08/03 07:50:41;;;;;;;1.45;1.13;;;;;;;28.35;58.50;100942.38;2616066;54;20181;-66
2022/08/03 07:53:11;;;;;;;3.53;0.63;;;;;;;28.27;60.62;100955.91;2616544;54;20150;-66
2022/08/03 07:55:44;;;;;;;1.13;0.77;;;;;;;28.30;52.95;100957.34;2616635;54;20156;-66
2022/08/03 07:58:16;;;;;;;3.20;1.65;;;;;;;28.48;51.37;100970.97;2616679;54;20149;-65
2022/08/03 08:00:53;;;;;;;0.22;0.15;;;;;;;28.35;55.32;100961.06;2616870;54;20148;-67
2022/08/03 08:03:25;;;;;;;0.17;0.15;;;;;;;28.55;53.83;100960.28;2616854;54;20146;-66
2022/08/03 08:05:55;;;;;;;0.80;0.57;;;;;;;28.72;55.44;100961.56;2616732;54;20142;-65
2022/08/03 08:08:25;;;;;;;3.20;1.02;;;;;;;28.51;50.32;100975.06;2616863;54;20149;-66
2022/08/03 08:10:58;;;;;;;0.50;0.30;;;;;;;28.37;52.16;100966.19;2616535;54;20153;-66
2022/08/03 08:13:29;;;;;;;0.20;0.20;;;;;;;28.80;54.00;100964.88;2617054;54;20156;-66
2022/08/03 08:15:59;;;;;;;1.35;0.85;;;;;;;28.67;53.26;100926.59;2616804;54;20686;-66
2022/08/03 08:18:30;;;;;;;0.63;0.50;;;;;;;28.58;53.18;100954.53;2616899;47;20241;-65
2022/08/03 08:21:02;;;;;;;0.43;0.15;;;;;;;28.82;56.21;100956.63;2616818;54;20685;-66
2022/08/03 08:23:33;;;;;;;0.77;0.63;;;;;;;28.54;50.64;100962.13;2616874;54;20173;-66
2022/08/03 08:26:16;;;;;;;0.00;0.00;;;;;;;28.84;55.04;100965.28;2616708;54;20578;-65
2022/08/03 08:28:46;;;;;;;0.32;0.32;;;;;;;29.16;63.12;100963.63;2616691;54;20201;-66
2022/08/03 08:31:17;;;;;;;0.75;0.75;;;;;;;29.13;67.52;100970.19;2616590;54;20705;-66
2022/08/03 08:33:47;;;;;;;0.00;0.00;;;;;;;29.38;71.42;100969.59;2616917;47;20155;-66
2022/08/03 08:36:34;;;;;;;1.17;0.98;;;;;;;29.08;73.58;100966.53;2616752;46;20178;-65
2022/08/03 08:39:04;;;;;;;0.10;0.10;;;;;;;29.11;71.57;100969.59;2616916;47;20142;-67
2022/08/03 08:41:37;;;;;;;0.68;0.68;;;;;;;29.18;72.70;100966.91;2616807;54;20185;-66
2022/08/03 08:44:15;;;;;;;0.47;0.47;;;;;;;29.23;73.74;100965.28;2616748;47;20141;-66
2022/08/03 08:46:46;;;;;;;0.43;0.43;;;;;;;29.49;71.42;100977.00;2616813;54;20142;-66
2022/08/03 08:49:22;;;;;;;0.30;0.30;;;;;;;29.57;63.67;100966.88;2616821;54;20146;-66
2022/08/03 08:51:54;;;;;;;0.10;0.10;;;;;;;29.52;70.13;100972.03;2616562;54;20152;-66
2022/08/03 08:54:33;;;;;;;0.15;0.15;;;;;;;29.44;73.01;100966.09;2616510;54;20141;-66
2022/08/03 08:57:08;;;;;;;0.30;0.30;;;;;;;29.56;71.45;100962.56;2616712;54;20150;-67
2022/08/03 08:59:59;;;;;;;0.28;0.28;;;;;;;29.74;69.29;100962.69;2617014;47;20142;-66
2022/08/03 09:02:32;;;;;;;1.00;0.57;;;;;;;29.72;72.83;100964.78;2617032;54;20150;-67
2022/08/03 09:05:03;;;;;;;0.00;0.00;;;;;;;29.63;72.56;100967.88;2617214;54;20691;-66
2022/08/03 09:07:36;;;;;;;0.20;0.20;;;;;;;29.62;72.17;100966.25;2616980;54;20142;-66
2022/08/03 09:10:09;;;;;;;0.00;0.00;;;;;;;29.54;74.03;100961.13;2616624;54;20145;-66
2022/08/03 09:12:45;;;;;;;0.10;0.10;;;;;;;29.61;73.26;100970.75;2616734;54;20160;-66
2022/08/03 09:15:21;;;;;;;0.00;0.00;;;;;;;29.59;74.35;100955.97;2616612;54;20150;-66
2022/08/03 09:17:52;;;;;;;0.00;0.00;;;;;;;29.76;73.71;100962.50;2617827;39;20560;-66
2022/08/03 09:20:24;;;;;;;0.57;0.57;;;;;;;29.78;74.31;100963.09;2616984;54;20142;-66
2022/08/03 09:22:57;;;;;;;0.00;0.00;;;;;;;29.92;72.62;100970.09;2616869;54;20149;-65
2022/08/03 09:25:33;;;;;;;1.70;0.65;;;;;;;29.57;76.21;100956.16;2616540;54;20166;-65
2022/08/03 09:28:14;;;;;;;0.30;0.30;;;;;;;29.46;76.06;100956.81;2617422;39;20616;-66
2022/08/03 09:31:04;;;;;;;0.00;0.00;;;;;;;29.76;74.06;100965.19;2616792;39;20439;-66
2022/08/03 09:33:34;;;;;;;0.47;0.47;;;;;;;29.74;74.04;100956.53;2616752;46;20167;-66
2022/08/03 09:36:05;;;;;;;0.25;0.20;;;;;;;29.41;74.98;100963.84;2616551;54;20141;-66
2022/08/03 09:38:35;;;;;;;0.57;0.57;;;;;;;29.56;74.23;100964.41;2616473;54;20141;-66
2022/08/03 09:41:19;;;;;;;0.00;0.00;;;;;;;29.72;72.67;100958.59;2616509;47;20696;-65
2022/08/03 09:43:55;;;;;;;0.30;0.30;;;;;;;29.72;70.90;100958.59;2616535;54;20141;-66
2022/08/03 09:46:27;;;;;;;0.00;0.00;;;;;;;29.75;70.50;100955.50;2616463;54;20149;-67
2022/08/03 09:49:12;;;;;;;0.65;0.65;;;;;;;29.47;70.14;100949.63;2617050;39;20564;-65
2022/08/03 09:51:43;;;;;;;0.15;0.15;;;;;;;29.47;70.51;100938.91;2616322;54;20153;-66
2022/08/03 09:54:34;;;;;;;0.25;0.25;;;;;;;29.44;70.24;100945.53;2616221;54;20257;-67
2022/08/03 09:57:04;;;;;;;0.03;0.03;;;;;;;29.39;68.11;100948.00;2616441;54;20149;-67
2022/08/03 09:59:37;;;;;;;0.05;0.05;;;;;;;29.42;69.28;100949.41;2616340;54;20160;-67
2022/08/03 10:02:23;;;;;;;0.35;0.35;;;;;;;29.41;72.32;100940.56;2616566;54;20141;-66
2022/08/03 10:04:54;;;;;;;1.45;0.47;;;;;;;29.52;73.28;100939.13;2617005;39;20585;-65
2022/08/03 10:07:26;;;;;;;0.10;0.10;;;;;;;29.59;71.97;100942.59;2616454;54;20674;-66
2022/08/03 10:09:58;;;;;;;0.40;0.30;;;;;;;29.60;73.34;100938.91;2616328;39;20561;-66
2022/08/03 10:12:49;;;;;;;0.25;0.25;;;;;;;29.81;73.98;100945.81;2616789;39;20664;-66
2022/08/03 10:15:22;;;;;;;0.08;0.08;;;;;;;29.88;72.04;100933.25;2616121;54;20142;-66
2022/08/03 10:18:13;;;;;;;0.32;0.30;;;;;;;29.87;69.45;100940.47;2616765;39;20563;-66
2022/08/03 10:20:48;;;;;;;0.17;0.17;;;;;;;29.63;70.67;100941.97;2616271;49;20246;-66
2022/08/03 10:23:20;;;;;;;0.10;0.10;;;;;;;30.05;70.49;100921.03;2616903;39;20571;-67
2022/08/03 10:25:56;;;;;;;0.75;0.75;;;;;;;29.63;71.79;100927.78;2616459;47;20141;-66
2022/08/03 10:28:27;;;;;;;0.28;0.28;;;;;;;29.72;72.71;100931.84;2616186;54;20205;-66
2022/08/03 10:31:00;;;;;;;0.65;0.65;;;;;;;29.50;72.17;100928.63;2616444;47;20149;-66
2022/08/03 10:33:33;;;;;;;0.50;0.50;;;;;;;29.68;71.22;100926.13;2616430;54;20670;-66
2022/08/03 10:36:24;;;;;;;0.10;0.10;;;;;;;29.69;72.71;100917.03;2616289;54;20149;-65
2022/08/03 10:38:55;;;;;;;0.28;0.28;;;;;;;29.65;74.26;100920.38;2616480;54;20142;-66
2022/08/03 10:41:32;;;;;;;0.43;0.43;;;;;;;29.52;74.31;100923.06;2616163;47;20150;-67
2022/08/03 10:44:07;;;;;;;0.22;0.22;;;;;;;29.55;72.75;100917.31;2616787;39;20554;-66
2022/08/03 10:46:42;;;;;;;0.00;0.00;;;;;;;29.49;73.83;100921.63;2616171;54;20148;-66
2022/08/03 10:49:15;;;;;;;0.00;0.00;;;;;;;29.63;74.05;100917.06;2616229;54;20165;-66
2022/08/03 10:52:04;;;;;;;0.75;0.75;;;;;;;29.57;73.22;100915.25;2616125;54;20207;-66
2022/08/03 10:57:51;;;;;;;0.17;0.17;;;;;;;30.11;72.56;100920.16;2616579;39;20537;-68
2022/08/03 11:00:29;;;;;;;0.22;0.22;;;;;;;29.84;72.77;100918.63;2616063;54;20598;-65
2022/08/03 11:03:20;;;;;;;0.45;0.45;;;;;;;29.88;71.38;100919.88;2616372;54;20149;-65
2022/08/03 11:05:53;;;;;;;0.17;0.13;;;;;;;30.13;68.81;100918.91;2616298;46;20161;-65
2022/08/03 11:08:26;;;;;;;0.28;0.28;;;;;;;30.02;68.21;100906.22;2616250;54;20152;-66
2022/08/03 11:10:58;;;;;;;0.00;0.00;;;;;;;30.19;68.71;100906.53;2616020;54;21204;-66
2022/08/03 11:13:32;;;;;;;0.00;0.00;;;;;;;30.03;68.83;100881.09;2616634;39;20587;-66
2022/08/03 11:16:06;;;;;;;0.60;0.60;;;;;;;30.18;67.15;100905.72;2616088;54;20172;-66
2022/08/03 11:18:58;;;;;;;1.00;0.93;;;;;;;29.88;69.50;100907.31;2616778;39;20531;-66
2022/08/03 11:21:58;;;;;;;0.43;0.20;;;;;;;30.05;69.87;100899.63;2616299;54;20678;-67
2022/08/03 11:24:58;;;;;;;1.15;1.05;;;;;;;30.23;70.28;100896.22;2616065;54;20141;-66
2022/08/03 11:27:36;;;;;;;0.88;0.55;;;;;;;30.11;71.57;100902.25;2616420;54;20271;-65
2022/08/03 11:30:10;;;;;;;1.20;0.63;;;;;;;30.14;70.35;100890.28;2616923;54;20153;-66
2022/08/03 11:32:59;;;;;;;0.47;0.30;;;;;;;30.13;68.47;100892.13;2616797;47;20406;-66
2022/08/03 11:35:34;;;;;;;0.00;0.00;;;;;;;30.24;69.85;100895.19;2616866;54;20141;-65
2022/08/03 11:38:10;;;;;;;0.52;0.52;;;;;;;30.04;68.44;100885.44;2617226;39;20590;-67
2022/08/03 11:40:46;;;;;;;0.00;0.00;;;;;;;30.14;70.24;100879.59;2616912;54;20153;-66
2022/08/03 11:43:46;;;;;;;0.40;0.40;;;;;;;30.02;68.57;100884.81;2616833;54;20149;-66
2022/08/03 11:46:20;;;;;;;1.38;0.47;;;;;;;29.71;71.69;100887.41;2616757;54;20148;-65
2022/08/03 11:49:07;;;;;;;0.63;0.63;;;;;;;29.99;72.43;100884.41;2617125;54;20150;-66
2022/08/03 11:51:42;;;;;;;0.30;0.30;;;;;;;29.96;70.79;100879.50;2617026;54;20148;-66
2022/08/03 11:54:12;;;;;;;1.10;0.75;;;;;;;29.97;69.29;100886.50;2616821;54;20689;-66
2022/08/03 11:56:47;;;;;;;0.10;0.10;;;;;;;30.02;67.71;100879.44;2616907;54;20148;-66
2022/08/03 11:59:18;;;;;;;0.32;0.32;;;;;;;30.06;69.44;100879.84;2616770;54;20134;-65
2022/08/03 12:01:52;;;;;;;0.38;0.38;;;;;;;30.13;69.79;100880.63;2616717;54;20153;-65
2022/08/03 12:04:22;;;;;;;0.47;0.47;;;;;;;30.01;67.98;100882.38;2617256;39;20573;-66
2022/08/03 12:07:04;;;;;;;0.00;0.00;;;;;;;30.18;67.95;100878.13;2616873;54;20149;-65